createdAt,value
2022-12-07T00:02:07.005Z,19.37
2022-12-07T00:04:35.233Z,20.13
2022-12-07T00:07:03.831Z,19.13
2022-12-07T00:09:32.381Z,19.23
2022-12-07T00:12:00.784Z,19.40
2022-12-07T00:14:29.376Z,18.50
2022-12-07T00:16:59.113Z,18.90
2022-12-07T00:19:27.449Z,19.13
2022-12-07T00:21:55.649Z,19.40
2022-12-07T00:24:23.841Z,19.50
2022-12-07T00:26:52.151Z,18.30
2022-12-07T00:29:24.237Z,18.53
2022-12-07T00:31:52.615Z,17.97
2022-12-07T00:34:23.553Z,18.03
2022-12-07T00:36:52.444Z,17.80
2022-12-07T00:39:20.720Z,17.87
2022-12-07T00:41:49.575Z,17.63
2022-12-07T00:44:18.023Z,17.70
2022-12-07T00:46:47.449Z,18.13
2022-12-07T00:49:15.895Z,18.00
2022-12-07T00:51:45.579Z,17.10
2022-12-07T00:54:13.957Z,17.90
2022-12-07T00:56:42.273Z,17.97
2022-12-07T00:59:14.450Z,18.23
2022-12-07T01:01:43.385Z,17.93
2022-12-07T01:04:12.050Z,18.53
2022-12-07T01:06:42.905Z,18.70
2022-12-07T01:09:12.622Z,16.90
2022-12-07T01:11:40.948Z,18.90
2022-12-07T01:14:10.814Z,18.47
2022-12-07T01:16:41.158Z,18.87
2022-12-07T01:19:09.554Z,18.93
2022-12-07T01:21:38.777Z,21.07
2022-12-07T01:24:12.541Z,19.70
2022-12-07T01:26:42.243Z,19.13
2022-12-07T01:29:10.778Z,19.43
2022-12-07T01:31:39.426Z,20.50
2022-12-07T01:34:07.704Z,20.40
2022-12-07T01:36:38.315Z,21.40
2022-12-07T01:39:08.679Z,21.73
2022-12-07T01:41:41.412Z,22.27
2022-12-07T01:44:16.658Z,22.50
2022-12-07T01:46:47.095Z,23.73
2022-12-07T01:49:20.930Z,24.80
2022-12-07T01:51:50.978Z,26.50
2022-12-07T01:54:20.433Z,26.73
2022-12-07T01:56:53.658Z,29.20
2022-12-07T01:59:26.897Z,28.50
2022-12-07T02:01:56.966Z,29.23
2022-12-07T02:04:25.491Z,28.70
2022-12-07T02:06:54.930Z,28.43
2022-12-07T02:09:23.211Z,29.23
2022-12-07T02:11:52.438Z,28.33
2022-12-07T02:14:20.712Z,28.17
2022-12-07T02:17:03.616Z,27.53
2022-12-07T02:20:10.847Z,26.50
2022-12-07T02:23:02.397Z,24.37
2022-12-07T02:25:42.470Z,25.27
2022-12-07T02:28:21.072Z,25.93
2022-12-07T02:30:52.188Z,26.23
2022-12-07T02:33:26.158Z,27.40
2022-12-07T02:36:01.399Z,28.03
2022-12-07T02:38:37.352Z,28.77
2022-12-07T02:41:12.566Z,27.60
2022-12-07T02:43:43.867Z,28.80
2022-12-07T02:46:16.790Z,28.30
2022-12-07T02:48:45.893Z,27.20
2022-12-07T02:51:14.291Z,26.87
2022-12-07T02:53:44.672Z,27.37
2022-12-07T02:56:30.036Z,28.03
2022-12-07T02:59:12.924Z,28.73
2022-12-07T03:01:52.132Z,29.40
2022-12-07T03:04:34.737Z,28.83
2022-12-07T03:07:11.037Z,29.90
2022-12-07T03:09:47.392Z,28.57
2022-12-07T03:12:21.927Z,29.93
2022-12-07T03:14:57.598Z,30.07
2022-12-07T03:17:32.526Z,31.10
2022-12-07T03:20:05.564Z,30.83
2022-12-07T03:22:37.573Z,30.00
2022-12-07T03:25:09.977Z,30.97
2022-12-07T03:27:42.493Z,31.10
2022-12-07T03:30:15.349Z,32.33
2022-12-07T03:32:50.651Z,32.90
2022-12-07T03:35:23.924Z,32.53
2022-12-07T03:37:56.966Z,33.40
2022-12-07T03:40:31.983Z,33.47
2022-12-07T03:43:02.683Z,33.33
2022-12-07T03:45:39.183Z,33.30
2022-12-07T03:48:14.220Z,34.73
2022-12-07T03:50:50.336Z,33.37
2022-12-07T03:53:23.627Z,32.70
2022-12-07T03:55:53.058Z,33.53
2022-12-07T03:58:23.934Z,31.73
2022-12-07T04:00:53.373Z,31.43
2022-12-07T04:03:23.507Z,30.10
2022-12-07T04:05:51.885Z,32.73
2022-12-07T04:08:20.297Z,35.80
2022-12-07T04:10:48.644Z,34.60
2022-12-07T04:13:17.352Z,33.17
2022-12-07T04:15:45.686Z,33.37
2022-12-07T04:18:14.128Z,28.73
2022-12-07T04:20:43.807Z,27.20
2022-12-07T04:23:12.000Z,26.50
2022-12-07T04:25:40.263Z,26.80
2022-12-07T04:28:08.573Z,27.40
2022-12-07T04:30:36.782Z,27.63
2022-12-07T04:33:05.049Z,27.50
2022-12-07T04:35:33.209Z,26.47
2022-12-07T04:38:02.859Z,26.70
2022-12-07T04:40:31.227Z,25.27
2022-12-07T04:42:59.624Z,28.63
2022-12-07T04:45:28.301Z,27.53
2022-12-07T04:47:56.556Z,27.90
2022-12-07T04:50:24.910Z,27.17
2022-12-07T04:52:53.168Z,26.70
2022-12-07T04:55:23.002Z,26.33
2022-12-07T04:57:51.339Z,30.13
2022-12-07T05:00:20.357Z,29.23
2022-12-07T05:02:48.627Z,30.17
2022-12-07T05:05:17.084Z,29.83
2022-12-07T05:07:45.465Z,32.13
2022-12-07T05:10:13.925Z,29.43
2022-12-07T05:12:43.801Z,29.17
2022-12-07T05:15:12.278Z,30.70
2022-12-07T05:17:40.576Z,29.17
2022-12-07T05:20:09.970Z,30.10
2022-12-07T05:22:38.430Z,31.43
2022-12-07T05:25:07.109Z,31.03
2022-12-07T05:27:35.303Z,31.90
2022-12-07T05:30:05.725Z,29.27
2022-12-07T05:32:34.249Z,31.23
2022-12-07T05:35:02.515Z,27.27
2022-12-07T05:37:30.751Z,29.50
2022-12-07T05:39:59.126Z,28.80
2022-12-07T05:42:27.481Z,27.27
2022-12-07T05:44:56.003Z,33.07
2022-12-07T05:47:25.785Z,32.17
2022-12-07T05:49:54.059Z,28.50
2022-12-07T05:52:22.274Z,27.97
2022-12-07T05:54:50.539Z,27.93
2022-12-07T05:57:18.865Z,24.73
2022-12-07T05:59:46.176Z,25.07
2022-12-07T06:02:17.142Z,25.90
2022-12-07T06:04:48.316Z,30.87
2022-12-07T06:07:18.383Z,33.77
2022-12-07T06:09:46.733Z,27.17
2022-12-07T06:12:33.294Z,25.83
2022-12-07T06:15:01.613Z,28.03
2022-12-07T06:17:30.031Z,32.43
2022-12-07T06:20:00.056Z,27.87
2022-12-07T06:22:28.847Z,27.10
2022-12-07T06:24:57.668Z,25.30
2022-12-07T06:27:25.942Z,27.77
2022-12-07T06:29:54.257Z,27.80
2022-12-07T06:32:22.471Z,25.20
2022-12-07T06:34:50.761Z,24.13
2022-12-07T06:37:20.480Z,23.50
2022-12-07T06:39:49.953Z,26.80
2022-12-07T06:42:18.235Z,32.80
2022-12-07T06:44:46.552Z,32.93
2022-12-07T06:50:04.534Z,25.90
2022-12-07T06:52:34.695Z,26.90
2022-12-07T06:55:02.981Z,23.60
2022-12-07T06:57:31.284Z,30.20
2022-12-07T06:59:59.831Z,28.63
2022-12-07T07:02:28.575Z,27.53
2022-12-07T07:04:56.858Z,24.60
2022-12-07T07:07:25.212Z,26.33
2022-12-07T07:09:55.169Z,23.90
2022-12-07T07:12:23.572Z,21.83
2022-12-07T07:14:51.823Z,22.27
2022-12-07T07:17:20.069Z,19.87
2022-12-07T07:19:50.421Z,20.67
2022-12-07T07:22:18.867Z,21.93
2022-12-07T07:24:47.776Z,21.03
2022-12-07T07:27:17.488Z,20.90
2022-12-07T07:29:47.495Z,20.70
2022-12-07T07:32:16.736Z,20.40
2022-12-07T07:34:44.972Z,21.70
2022-12-07T07:37:18.710Z,21.27
2022-12-07T07:39:50.056Z,20.43
2022-12-07T07:42:19.865Z,20.43
2022-12-07T07:44:48.488Z,21.00
2022-12-07T07:47:16.729Z,21.70
2022-12-07T07:49:48.182Z,21.50
2022-12-07T07:52:16.947Z,26.17
2022-12-07T07:54:45.249Z,24.80
2022-12-07T07:57:13.482Z,23.53
2022-12-07T07:59:43.131Z,18.93
2022-12-07T08:02:15.520Z,17.33
2022-12-07T08:04:43.978Z,16.87
2022-12-07T08:07:12.797Z,17.47
2022-12-07T08:09:41.090Z,17.87
2022-12-07T08:12:09.744Z,18.23
2022-12-07T08:14:38.139Z,20.80
2022-12-07T08:17:07.919Z,25.80
2022-12-07T08:19:37.794Z,21.20
2022-12-07T08:22:06.108Z,19.30
2022-12-07T08:24:35.841Z,17.77
2022-12-07T08:27:04.898Z,17.83
2022-12-07T08:29:33.353Z,16.63
2022-12-07T08:32:06.591Z,16.67
2022-12-07T08:34:39.243Z,15.20
2022-12-07T08:37:07.990Z,15.93
2022-12-07T08:39:36.207Z,16.17
2022-12-07T08:42:04.565Z,15.77
2022-12-07T08:44:33.154Z,15.37
2022-12-07T08:47:06.411Z,14.90
2022-12-07T08:49:38.570Z,22.13
2022-12-07T08:52:08.515Z,15.10
2022-12-07T08:54:38.964Z,15.83
2022-12-07T08:57:08.954Z,16.23
2022-12-07T09:02:24.136Z,15.67
2022-12-07T09:04:52.454Z,16.57
2022-12-07T09:07:22.549Z,15.93
2022-12-07T09:09:50.875Z,15.83
2022-12-07T09:12:19.478Z,16.87
2022-12-07T09:14:47.852Z,16.27
2022-12-07T09:17:16.319Z,16.67
2022-12-07T09:19:44.896Z,15.53
2022-12-07T09:22:13.593Z,16.70
2022-12-07T09:24:44.347Z,15.80
2022-12-07T09:27:12.770Z,15.17
2022-12-07T09:29:41.267Z,15.90
2022-12-07T09:32:11.978Z,18.20
2022-12-07T09:34:41.684Z,16.30
2022-12-07T09:37:09.939Z,16.10
2022-12-07T09:39:49.514Z,14.63
2022-12-07T09:42:31.390Z,15.47
2022-12-07T09:45:01.222Z,14.60
2022-12-07T09:47:31.009Z,15.13
2022-12-07T09:50:06.662Z,16.97
2022-12-07T09:52:38.685Z,16.97
2022-12-07T09:55:14.203Z,16.33
2022-12-07T09:57:43.994Z,16.43
2022-12-07T10:00:16.419Z,15.33
2022-12-07T10:02:49.070Z,16.03
2022-12-07T10:05:24.187Z,16.33
2022-12-07T10:07:53.555Z,17.17
2022-12-07T10:10:27.761Z,15.13
2022-12-07T10:13:02.227Z,15.77
2022-12-07T10:15:49.599Z,13.30
2022-12-07T10:18:27.359Z,15.07
2022-12-07T10:21:04.992Z,14.60
2022-12-07T10:23:33.534Z,14.57
2022-12-07T10:26:23.663Z,14.33
2022-12-07T10:28:52.087Z,14.73
2022-12-07T10:31:23.947Z,15.70
2022-12-07T10:33:54.874Z,14.60
2022-12-07T10:36:27.302Z,14.37
2022-12-07T10:39:01.975Z,14.70
2022-12-07T10:41:32.013Z,14.50
2022-12-07T10:44:00.527Z,13.20
2022-12-07T10:46:59.945Z,12.87
2022-12-07T10:50:04.278Z,12.90
2022-12-07T10:52:47.479Z,12.57
2022-12-07T10:55:28.006Z,13.27
2022-12-07T10:58:14.551Z,13.40
2022-12-07T11:00:48.343Z,14.67
2022-12-07T11:03:40.226Z,11.80
2022-12-07T11:06:23.776Z,11.33
2022-12-07T11:09:05.320Z,10.57
2022-12-07T11:11:37.711Z,11.37
2022-12-07T11:14:19.390Z,10.70
2022-12-07T11:16:58.521Z,10.40
2022-12-07T11:19:42.781Z,11.67
2022-12-07T11:22:19.466Z,10.80
2022-12-07T11:24:58.907Z,11.10
2022-12-07T11:27:39.809Z,11.17
2022-12-07T11:30:21.938Z,10.83
2022-12-07T11:33:13.174Z,10.17
2022-12-07T11:35:52.854Z,11.00
2022-12-07T11:38:29.801Z,10.90
2022-12-07T11:41:14.092Z,10.50
2022-12-07T11:43:55.740Z,10.80
2022-12-07T11:46:28.787Z,11.00
2022-12-07T11:49:05.561Z,11.40
2022-12-07T11:51:40.624Z,11.73
2022-12-07T11:54:18.741Z,11.20
2022-12-07T11:56:52.360Z,12.07
2022-12-07T11:59:26.282Z,12.43
2022-12-07T12:02:01.566Z,12.57
2022-12-07T12:04:43.550Z,11.37
2022-12-07T12:10:08.473Z,12.57
2022-12-07T12:16:15.090Z,12.47
2022-12-07T12:18:58.601Z,11.93
2022-12-07T12:21:31.965Z,12.10
2022-12-07T12:24:04.323Z,12.03
2022-12-07T12:26:35.855Z,12.23
2022-12-07T12:29:07.186Z,12.27
2022-12-07T12:31:40.552Z,12.40
2022-12-07T12:34:33.529Z,12.37
2022-12-07T12:37:02.139Z,12.93
2022-12-07T12:39:31.056Z,12.30
2022-12-07T12:42:09.115Z,12.87
2022-12-07T12:45:22.496Z,12.77
2022-12-07T12:48:00.726Z,12.47
2022-12-07T12:50:35.851Z,12.70
2022-12-07T12:53:23.772Z,12.90
2022-12-07T12:56:19.019Z,12.23
2022-12-07T12:58:49.600Z,11.67
2022-12-07T13:01:52.038Z,12.90
2022-12-07T13:04:39.804Z,12.50
2022-12-07T13:07:16.164Z,12.13
2022-12-07T13:09:47.197Z,12.10
2022-12-07T13:12:17.855Z,13.33
2022-12-07T13:15:29.439Z,12.40
2022-12-07T13:18:04.155Z,13.63
2022-12-07T13:20:47.808Z,12.53
2022-12-07T13:23:21.941Z,12.30
2022-12-07T13:26:16.952Z,13.90
2022-12-07T13:28:48.517Z,12.80
2022-12-07T13:31:25.728Z,13.03
2022-12-07T13:33:54.380Z,12.80
2022-12-07T13:36:25.550Z,12.60
2022-12-07T13:38:58.969Z,16.57
2022-12-07T13:41:28.241Z,12.83
2022-12-07T13:44:03.759Z,13.43
2022-12-07T13:46:45.706Z,14.13
2022-12-07T13:49:20.978Z,14.53
2022-12-07T13:51:50.565Z,15.57
2022-12-07T13:54:21.835Z,13.63
2022-12-07T13:56:52.898Z,14.20
2022-12-07T13:59:23.286Z,12.63
2022-12-07T14:01:55.218Z,12.33
2022-12-07T14:04:36.219Z,12.00
2022-12-07T14:07:22.928Z,10.93
2022-12-07T14:10:01.540Z,9.50
2022-12-07T14:12:32.063Z,10.43
2022-12-07T14:15:03.626Z,9.60
2022-12-07T14:17:32.501Z,9.10
2022-12-07T14:20:03.165Z,9.83
2022-12-07T14:22:36.083Z,9.53
2022-12-07T14:25:23.124Z,11.60
2022-12-07T14:28:02.609Z,11.77
2022-12-07T14:30:32.438Z,11.20
2022-12-07T14:33:02.945Z,10.87
2022-12-07T14:35:33.166Z,11.80
2022-12-07T14:38:04.138Z,11.07
2022-12-07T14:40:34.888Z,11.77
2022-12-07T14:43:05.123Z,13.50
2022-12-07T14:45:33.945Z,14.03
2022-12-07T14:53:51.381Z,13.77
2022-12-07T14:56:26.178Z,12.83
2022-12-07T14:58:54.918Z,11.73
2022-12-07T15:01:23.588Z,9.73
2022-12-07T15:03:52.702Z,10.80
2022-12-07T15:06:21.467Z,12.37
2022-12-07T15:08:49.808Z,10.00
2022-12-07T15:11:22.361Z,10.80
2022-12-07T15:14:10.335Z,13.17
2022-12-07T15:17:06.787Z,12.40
2022-12-07T15:19:30.322Z,12.27
2022-12-07T15:21:59.341Z,11.47
2022-12-07T15:24:28.673Z,11.93
2022-12-07T15:26:57.222Z,14.00
2022-12-07T15:29:27.656Z,13.93
2022-12-07T15:31:58.901Z,14.40
2022-12-07T15:34:33.476Z,15.50
2022-12-07T15:37:06.592Z,14.90
2022-12-07T15:39:35.288Z,15.17
2022-12-07T15:42:03.715Z,15.03
2022-12-07T15:44:50.791Z,14.00
2022-12-07T15:47:19.154Z,16.03
2022-12-07T15:49:48.008Z,15.27
2022-12-07T15:52:16.860Z,15.00
2022-12-07T15:54:45.150Z,15.13
2022-12-07T15:57:13.623Z,14.20
2022-12-07T15:59:43.440Z,15.63
2022-12-07T16:02:12.457Z,16.77
2022-12-07T16:04:40.990Z,18.33
2022-12-07T16:07:09.719Z,17.17
2022-12-07T16:09:38.121Z,19.20
2022-12-07T16:12:06.800Z,18.10
2022-12-07T16:14:35.176Z,20.37
2022-12-07T16:17:05.439Z,17.97
2022-12-07T16:19:34.282Z,19.70
2022-12-07T16:22:02.661Z,15.70
2022-12-07T16:24:31.211Z,18.27
2022-12-07T16:26:59.809Z,15.13
2022-12-07T16:29:28.585Z,19.77
2022-12-07T16:31:57.065Z,17.97
2022-12-07T16:34:26.972Z,18.27
2022-12-07T16:37:03.899Z,16.60
2022-12-07T16:39:33.291Z,18.97
2022-12-07T16:42:01.663Z,17.80
2022-12-07T16:44:31.689Z,18.00
2022-12-07T16:47:01.128Z,17.27
2022-12-07T16:49:30.998Z,20.10
2022-12-07T16:54:51.337Z,16.67
2022-12-07T16:57:23.423Z,16.40
2022-12-07T16:59:53.211Z,16.97
2022-12-07T17:02:21.886Z,17.33
2022-12-07T17:04:52.328Z,16.60
2022-12-07T17:07:20.664Z,20.13
2022-12-07T17:09:49.037Z,19.00
2022-12-07T17:12:17.569Z,19.33
2022-12-07T17:15:03.281Z,19.33
2022-12-07T17:17:31.928Z,20.17
2022-12-07T17:20:01.693Z,20.50
2022-12-07T17:22:30.057Z,19.57
2022-12-07T17:24:58.360Z,20.40
2022-12-07T17:27:26.724Z,21.60
2022-12-07T17:29:55.254Z,20.43
2022-12-07T17:32:23.625Z,24.80
2022-12-07T17:34:52.261Z,23.37
2022-12-07T17:37:21.906Z,26.87
2022-12-07T17:39:50.707Z,27.23
2022-12-07T17:42:36.569Z,20.13
2022-12-07T17:45:05.760Z,19.63
2022-12-07T17:47:34.355Z,15.90
2022-12-07T17:50:06.910Z,18.77
2022-12-07T17:52:57.782Z,17.60
2022-12-07T17:55:26.190Z,18.20
2022-12-07T17:57:54.661Z,18.87
2022-12-07T18:00:23.171Z,17.00
2022-12-07T18:02:52.646Z,18.90
2022-12-07T18:05:20.901Z,19.23
2022-12-07T18:07:50.953Z,19.37
2022-12-07T18:10:19.506Z,20.43
2022-12-07T18:12:52.040Z,20.47
2022-12-07T18:15:20.900Z,18.57
2022-12-07T18:17:50.265Z,19.13
2022-12-07T18:20:18.806Z,18.77
2022-12-07T18:22:47.085Z,19.13
2022-12-07T18:25:16.894Z,20.03
2022-12-07T18:27:45.172Z,21.20
2022-12-07T18:30:14.596Z,22.60
2022-12-07T18:32:42.907Z,22.37
2022-12-07T18:35:11.591Z,22.93
2022-12-07T18:37:39.893Z,23.00
2022-12-07T18:40:09.831Z,21.43
2022-12-07T18:42:39.461Z,18.27
2022-12-07T18:45:08.804Z,18.57
2022-12-07T18:47:37.155Z,19.23
2022-12-07T18:50:06.129Z,19.23
2022-12-07T18:52:34.538Z,22.00
2022-12-07T18:55:03.773Z,21.20
2022-12-07T18:57:34.546Z,18.73
2022-12-07T19:00:07.066Z,18.20
2022-12-07T19:02:35.624Z,18.17
2022-12-07T19:05:04.646Z,17.77
2022-12-07T19:07:33.131Z,19.93
2022-12-07T19:10:01.498Z,18.07
2022-12-07T19:12:30.109Z,17.73
2022-12-07T19:14:58.381Z,17.80
2022-12-07T19:17:28.100Z,17.70
2022-12-07T19:19:56.447Z,18.27
2022-12-07T19:22:25.241Z,31.33
2022-12-07T19:24:55.245Z,21.97
2022-12-07T19:27:24.600Z,20.67
2022-12-07T19:29:53.019Z,20.43
2022-12-07T19:32:21.473Z,19.80
2022-12-07T19:34:51.493Z,20.43
2022-12-07T19:37:19.944Z,20.80
2022-12-07T19:39:51.771Z,20.90
2022-12-07T19:42:20.207Z,19.93
2022-12-07T19:44:48.761Z,20.63
2022-12-07T19:47:17.642Z,19.63
2022-12-07T19:49:46.801Z,20.20
2022-12-07T19:52:16.459Z,19.97
2022-12-07T19:54:44.704Z,26.47
2022-12-07T19:57:16.010Z,23.43
2022-12-07T19:59:46.240Z,23.83
2022-12-07T20:02:15.998Z,22.67
2022-12-07T20:04:44.819Z,22.97
2022-12-07T20:07:13.081Z,23.27
2022-12-07T20:09:42.905Z,23.40
2022-12-07T20:12:29.337Z,23.63
2022-12-07T20:14:57.823Z,23.23
2022-12-07T20:17:26.101Z,23.17
2022-12-07T20:19:54.469Z,23.63
2022-12-07T20:22:22.752Z,24.60
2022-12-07T20:24:52.680Z,21.90
2022-12-07T20:27:21.090Z,22.30
2022-12-07T20:29:50.739Z,24.07
2022-12-07T20:32:19.249Z,23.40
2022-12-07T20:34:48.747Z,22.77
2022-12-07T20:37:17.343Z,23.77
2022-12-07T20:39:45.544Z,22.80
2022-12-07T20:42:32.800Z,22.33
2022-12-07T20:45:03.515Z,23.20
2022-12-07T20:47:33.114Z,26.93
2022-12-07T20:50:01.536Z,24.23
2022-12-07T20:52:31.851Z,23.83
2022-12-07T20:55:00.613Z,22.17
2022-12-07T20:57:30.656Z,23.27
2022-12-07T20:59:59.068Z,23.03
2022-12-07T21:02:27.889Z,26.77
2022-12-07T21:04:56.377Z,26.00
2022-12-07T21:07:24.727Z,27.23
2022-12-07T21:09:53.304Z,26.63
2022-12-07T21:12:21.549Z,28.97
2022-12-07T21:14:54.435Z,29.77
2022-12-07T21:17:23.195Z,33.73
2022-12-07T21:19:51.688Z,30.83
2022-12-07T21:22:20.044Z,33.30
2022-12-07T21:24:48.324Z,32.53
2022-12-07T21:27:16.646Z,32.13
2022-12-07T21:29:47.711Z,35.00
2022-12-07T21:32:19.677Z,33.50
2022-12-07T21:34:48.384Z,31.83
2022-12-07T21:37:17.233Z,32.70
2022-12-07T21:39:45.513Z,32.10
2022-12-07T21:42:13.780Z,30.73
2022-12-07T21:44:42.219Z,30.90
2022-12-07T21:47:10.615Z,27.77
2022-12-07T21:49:40.322Z,28.07
2022-12-07T21:52:09.015Z,30.97
2022-12-07T21:54:37.913Z,30.47
2022-12-07T21:57:06.210Z,29.53
2022-12-07T21:59:34.516Z,28.93
2022-12-07T22:02:03.044Z,30.00
2022-12-07T22:04:31.344Z,32.00
2022-12-07T22:07:01.666Z,30.07
2022-12-07T22:09:30.584Z,30.13
2022-12-07T22:11:59.046Z,29.63
2022-12-07T22:14:44.664Z,29.93
2022-12-07T22:17:12.981Z,31.40
2022-12-07T22:19:41.564Z,29.50
2022-12-07T22:22:16.175Z,28.83
2022-12-07T22:24:45.364Z,28.83
2022-12-07T22:27:13.659Z,31.20
2022-12-07T22:29:42.331Z,30.97
2022-12-07T22:32:40.017Z,30.43
2022-12-07T22:34:59.302Z,30.43
2022-12-07T22:37:30.304Z,31.37
2022-12-07T22:39:58.756Z,31.53
2022-12-07T22:42:27.418Z,33.20
2022-12-07T22:44:55.762Z,35.63
2022-12-07T22:47:23.976Z,38.10
2022-12-07T22:49:52.521Z,37.07
2022-12-07T22:52:21.011Z,35.17
2022-12-07T22:54:50.874Z,33.93
2022-12-07T22:57:19.594Z,46.40
2022-12-07T22:59:47.793Z,42.37
2022-12-07T23:02:16.159Z,38.27
2022-12-07T23:04:44.500Z,38.93
2022-12-07T23:07:12.849Z,37.93
2022-12-07T23:09:41.906Z,37.27
2022-12-07T23:12:31.175Z,43.57
2022-12-07T23:14:59.538Z,45.27
2022-12-07T23:17:27.895Z,46.43
2022-12-07T23:19:56.517Z,45.80
2022-12-07T23:22:25.486Z,44.83
2022-12-07T23:24:53.843Z,48.70
2022-12-07T23:27:24.026Z,48.60
2022-12-07T23:29:52.504Z,44.67
2022-12-07T23:32:20.739Z,44.63
2022-12-07T23:34:49.262Z,42.47
2022-12-07T23:37:17.631Z,40.20
2022-12-07T23:39:45.853Z,41.37
2022-12-07T23:42:14.072Z,40.63
2022-12-07T23:44:43.798Z,40.17
2022-12-07T23:47:12.109Z,37.07
2022-12-07T23:49:40.608Z,38.40
2022-12-07T23:52:08.897Z,38.73
2022-12-07T23:54:37.279Z,35.27
2022-12-07T23:57:05.552Z,37.33
2022-12-07T23:59:33.795Z,38.13
